sensor_id;sensor_type;location;lat;lon;timestamp;temperature;humidity
44190;DHT22;29856;52.144;5.430;2022-12-07T00:02:00;6.80;99.90
44190;DHT22;29856;52.144;5.430;2022-12-07T00:04:26;6.80;99.90
44190;DHT22;29856;52.144;5.430;2022-12-07T00:06:52;6.80;99.90
44190;DHT22;29856;52.144;5.430;2022-12-07T00:09:18;6.90;99.90
44190;DHT22;29856;52.144;5.430;2022-12-07T00:11:44;6.90;99.90
44190;DHT22;29856;52.144;5.430;2022-12-07T00:14:14;6.90;99.90
44190;DHT22;29856;52.144;5.430;2022-12-07T00:16:41;6.90;99.90
44190;DHT22;29856;52.144;5.430;2022-12-07T00:19:06;6.90;99.90
44190;DHT22;29856;52.144;5.430;2022-12-07T00:21:34;6.80;99.90
44190;DHT22;29856;52.144;5.430;2022-12-07T00:24:01;6.70;99.90
44190;DHT22;29856;52.144;5.430;2022-12-07T00:26:32;6.70;99.90
44190;DHT22;29856;52.144;5.430;2022-12-07T00:29:16;6.50;99.90
44190;DHT22;29856;52.144;5.430;2022-12-07T00:31:42;6.50;99.90
44190;DHT22;29856;52.144;5.430;2022-12-07T00:34:12;6.60;99.90
44190;DHT22;29856;52.144;5.430;2022-12-07T00:36:38;6.60;99.90
44190;DHT22;29856;52.144;5.430;2022-12-07T00:39:03;6.50;99.90
44190;DHT22;29856;52.144;5.430;2022-12-07T00:41:29;6.40;99.90
44190;DHT22;29856;52.144;5.430;2022-12-07T00:43:56;6.40;99.90
44190;DHT22;29856;52.144;5.430;2022-12-07T00:46:22;6.30;99.90
44190;DHT22;29856;52.144;5.430;2022-12-07T00:48:48;6.30;99.90
44190;DHT22;29856;52.144;5.430;2022-12-07T00:51:16;6.30;99.90
44190;DHT22;29856;52.144;5.430;2022-12-07T00:53:42;6.30;99.90
44190;DHT22;29856;52.144;5.430;2022-12-07T00:56:15;6.30;99.90
44190;DHT22;29856;52.144;5.430;2022-12-07T00:58:41;6.30;99.90
44190;DHT22;29856;52.144;5.430;2022-12-07T01:01:08;6.40;99.90
44190;DHT22;29856;52.144;5.430;2022-12-07T01:03:34;6.40;99.90
44190;DHT22;29856;52.144;5.430;2022-12-07T01:05:59;6.40;99.90
44190;DHT22;29856;52.144;5.430;2022-12-07T01:08:26;6.30;99.90
44190;DHT22;29856;52.144;5.430;2022-12-07T01:11:06;6.30;99.90
44190;DHT22;29856;52.144;5.430;2022-12-07T01:13:34;6.30;99.90
44190;DHT22;29856;52.144;5.430;2022-12-07T01:16:03;6.20;99.90
44190;DHT22;29856;52.144;5.430;2022-12-07T01:18:30;6.20;99.90
44190;DHT22;29856;52.144;5.430;2022-12-07T01:21:15;6.30;99.90
44190;DHT22;29856;52.144;5.430;2022-12-07T01:23:41;6.20;99.90
44190;DHT22;29856;52.144;5.430;2022-12-07T01:26:10;6.30;99.90
44190;DHT22;29856;52.144;5.430;2022-12-07T01:28:36;6.30;99.90
44190;DHT22;29856;52.144;5.430;2022-12-07T01:31:07;6.30;99.90
44190;DHT22;29856;52.144;5.430;2022-12-07T01:33:35;6.30;99.90
44190;DHT22;29856;52.144;5.430;2022-12-07T01:36:06;6.20;99.90
44190;DHT22;29856;52.144;5.430;2022-12-07T01:38:33;6.20;99.90
44190;DHT22;29856;52.144;5.430;2022-12-07T01:40:59;6.10;99.90
44190;DHT22;29856;52.144;5.430;2022-12-07T01:43:28;6.10;99.90
44190;DHT22;29856;52.144;5.430;2022-12-07T01:45:54;6.10;99.90
44190;DHT22;29856;52.144;5.430;2022-12-07T01:48:27;6.10;99.90
44190;DHT22;29856;52.144;5.430;2022-12-07T01:50:54;6.00;99.90
44190;DHT22;29856;52.144;5.430;2022-12-07T01:53:24;6.10;99.90
44190;DHT22;29856;52.144;5.430;2022-12-07T01:55:52;6.10;99.90
44190;DHT22;29856;52.144;5.430;2022-12-07T01:58:18;6.00;99.90
44190;DHT22;29856;52.144;5.430;2022-12-07T02:00:45;6.00;99.90
44190;DHT22;29856;52.144;5.430;2022-12-07T02:03:16;6.00;99.90
44190;DHT22;29856;52.144;5.430;2022-12-07T02:05:43;5.90;99.90
44190;DHT22;29856;52.144;5.430;2022-12-07T02:08:10;5.90;99.90
44190;DHT22;29856;52.144;5.430;2022-12-07T02:10:37;5.90;99.90
44190;DHT22;29856;52.144;5.430;2022-12-07T02:13:13;5.90;99.90
44190;DHT22;29856;52.144;5.430;2022-12-07T02:15:45;5.90;99.90
44190;DHT22;29856;52.144;5.430;2022-12-07T02:18:44;5.80;99.90
44190;DHT22;29856;52.144;5.430;2022-12-07T02:24:30;5.70;99.90
44190;DHT22;29856;52.144;5.430;2022-12-07T02:30:05;5.70;99.90
44190;DHT22;29856;52.144;5.430;2022-12-07T02:32:45;5.70;99.90
44190;DHT22;29856;52.144;5.430;2022-12-07T02:35:46;5.80;99.90
44190;DHT22;29856;52.144;5.430;2022-12-07T02:41:46;5.90;99.90
44190;DHT22;29856;52.144;5.430;2022-12-07T02:43:59;5.90;99.90
44190;DHT22;29856;52.144;5.430;2022-12-07T02:46:34;6.00;99.90
44190;DHT22;29856;52.144;5.430;2022-12-07T02:49:01;5.90;99.90
44190;DHT22;29856;52.144;5.430;2022-12-07T02:51:30;5.90;99.90
44190;DHT22;29856;52.144;5.430;2022-12-07T02:53:56;6.00;99.90
44190;DHT22;29856;52.144;5.430;2022-12-07T02:56:46;6.10;99.90
44190;DHT22;29856;52.144;5.430;2022-12-07T03:11:02;5.90;99.90
44190;DHT22;29856;52.144;5.430;2022-12-07T03:13:50;5.80;99.90
44190;DHT22;29856;52.144;5.430;2022-12-07T03:16:23;5.80;99.90
44190;DHT22;29856;52.144;5.430;2022-12-07T03:19:03;5.90;99.90
44190;DHT22;29856;52.144;5.430;2022-12-07T03:21:38;5.90;99.90
44190;DHT22;29856;52.144;5.430;2022-12-07T03:24:10;5.80;99.90
44190;DHT22;29856;52.144;5.430;2022-12-07T03:27:03;5.90;99.90
44190;DHT22;29856;52.144;5.430;2022-12-07T03:29:30;6.00;99.90
44190;DHT22;29856;52.144;5.430;2022-12-07T03:32:02;5.90;99.90
44190;DHT22;29856;52.144;5.430;2022-12-07T03:34:59;6.00;99.90
44190;DHT22;29856;52.144;5.430;2022-12-07T03:37:35;6.00;99.90
44190;DHT22;29856;52.144;5.430;2022-12-07T03:40:10;6.00;99.90
44190;DHT22;29856;52.144;5.430;2022-12-07T03:42:36;6.10;99.90
44190;DHT22;29856;52.144;5.430;2022-12-07T03:45:03;6.00;99.90
44190;DHT22;29856;52.144;5.430;2022-12-07T03:50:38;6.10;99.90
44190;DHT22;29856;52.144;5.430;2022-12-07T03:53:11;5.90;99.90
44190;DHT22;29856;52.144;5.430;2022-12-07T03:55:42;6.00;99.90
44190;DHT22;29856;52.144;5.430;2022-12-07T03:58:16;6.00;99.90
44190;DHT22;29856;52.144;5.430;2022-12-07T04:00:43;6.10;99.90
44190;DHT22;29856;52.144;5.430;2022-12-07T04:03:10;6.00;99.90
44190;DHT22;29856;52.144;5.430;2022-12-07T04:05:36;6.00;99.90
44190;DHT22;29856;52.144;5.430;2022-12-07T04:08:01;5.90;99.90
44190;DHT22;29856;52.144;5.430;2022-12-07T04:10:27;5.90;99.90
44190;DHT22;29856;52.144;5.430;2022-12-07T04:12:52;6.10;99.90
44190;DHT22;29856;52.144;5.430;2022-12-07T04:15:18;6.10;99.90
44190;DHT22;29856;52.144;5.430;2022-12-07T04:17:43;6.10;99.90
44190;DHT22;29856;52.144;5.430;2022-12-07T04:20:09;6.10;99.90
44190;DHT22;29856;52.144;5.430;2022-12-07T04:22:35;6.00;99.90
44190;DHT22;29856;52.144;5.430;2022-12-07T04:25:00;6.00;99.90
44190;DHT22;29856;52.144;5.430;2022-12-07T04:27:26;6.10;99.90
44190;DHT22;29856;52.144;5.430;2022-12-07T04:29:52;6.10;99.90
44190;DHT22;29856;52.144;5.430;2022-12-07T04:32:18;6.00;99.90
44190;DHT22;29856;52.144;5.430;2022-12-07T04:34:43;6.00;99.90
44190;DHT22;29856;52.144;5.430;2022-12-07T04:37:09;6.00;99.90
44190;DHT22;29856;52.144;5.430;2022-12-07T04:39:34;6.00;99.90
44190;DHT22;29856;52.144;5.430;2022-12-07T04:42:01;5.90;99.90
44190;DHT22;29856;52.144;5.430;2022-12-07T04:44:27;6.00;99.90
44190;DHT22;29856;52.144;5.430;2022-12-07T04:46:54;6.00;99.90
44190;DHT22;29856;52.144;5.430;2022-12-07T04:49:20;6.00;99.90
44190;DHT22;29856;52.144;5.430;2022-12-07T04:51:46;5.90;99.90
44190;DHT22;29856;52.144;5.430;2022-12-07T04:54:14;5.90;99.90
44190;DHT22;29856;52.144;5.430;2022-12-07T04:56:39;5.90;99.90
44190;DHT22;29856;52.144;5.430;2022-12-07T04:59:06;5.80;99.90
44190;DHT22;29856;52.144;5.430;2022-12-07T05:01:32;5.80;99.90
44190;DHT22;29856;52.144;5.430;2022-12-07T05:03:58;5.80;99.90
44190;DHT22;29856;52.144;5.430;2022-12-07T05:06:24;5.70;99.90
44190;DHT22;29856;52.144;5.430;2022-12-07T05:08:49;5.80;99.90
44190;DHT22;29856;52.144;5.430;2022-12-07T05:11:15;5.80;99.90
44190;DHT22;29856;52.144;5.430;2022-12-07T05:13:40;5.80;99.90
44190;DHT22;29856;52.144;5.430;2022-12-07T05:16:06;5.80;99.90
44190;DHT22;29856;52.144;5.430;2022-12-07T05:18:31;5.80;99.90
44190;DHT22;29856;52.144;5.430;2022-12-07T05:20:57;5.80;99.90
44190;DHT22;29856;52.144;5.430;2022-12-07T05:23:22;5.70;99.90
44190;DHT22;29856;52.144;5.430;2022-12-07T05:25:48;5.70;99.90
44190;DHT22;29856;52.144;5.430;2022-12-07T05:28:13;5.70;99.90
44190;DHT22;29856;52.144;5.430;2022-12-07T05:30:39;5.70;99.90
44190;DHT22;29856;52.144;5.430;2022-12-07T05:33:04;5.70;99.90
44190;DHT22;29856;52.144;5.430;2022-12-07T05:35:30;5.70;99.90
44190;DHT22;29856;52.144;5.430;2022-12-07T05:37:56;5.60;99.90
44190;DHT22;29856;52.144;5.430;2022-12-07T05:40:21;5.80;99.90
44190;DHT22;29856;52.144;5.430;2022-12-07T05:42:47;5.80;99.90
44190;DHT22;29856;52.144;5.430;2022-12-07T05:45:12;5.70;99.90
44190;DHT22;29856;52.144;5.430;2022-12-07T05:47:38;5.70;99.90
44190;DHT22;29856;52.144;5.430;2022-12-07T05:50:04;5.80;99.90
44190;DHT22;29856;52.144;5.430;2022-12-07T05:52:30;5.80;99.90
44190;DHT22;29856;52.144;5.430;2022-12-07T05:54:56;5.80;99.90
44190;DHT22;29856;52.144;5.430;2022-12-07T05:57:21;5.90;99.90
44190;DHT22;29856;52.144;5.430;2022-12-07T05:59:47;5.90;99.90
44190;DHT22;29856;52.144;5.430;2022-12-07T06:02:14;5.90;99.90
44190;DHT22;29856;52.144;5.430;2022-12-07T06:04:43;6.00;99.90
44190;DHT22;29856;52.144;5.430;2022-12-07T06:07:09;6.10;99.90
44190;DHT22;29856;52.144;5.430;2022-12-07T06:09:35;6.10;99.90
44190;DHT22;29856;52.144;5.430;2022-12-07T06:12:01;6.10;99.90
44190;DHT22;29856;52.144;5.430;2022-12-07T06:14:27;6.00;99.90
44190;DHT22;29856;52.144;5.430;2022-12-07T06:16:53;6.10;99.90
44190;DHT22;29856;52.144;5.430;2022-12-07T06:19:18;6.10;99.90
44190;DHT22;29856;52.144;5.430;2022-12-07T06:21:44;6.10;99.90
44190;DHT22;29856;52.144;5.430;2022-12-07T06:24:13;6.10;99.90
44190;DHT22;29856;52.144;5.430;2022-12-07T06:26:39;6.00;99.90
44190;DHT22;29856;52.144;5.430;2022-12-07T06:29:05;6.00;99.90
44190;DHT22;29856;52.144;5.430;2022-12-07T06:31:31;6.10;99.90
44190;DHT22;29856;52.144;5.430;2022-12-07T06:34:00;6.10;99.90
44190;DHT22;29856;52.144;5.430;2022-12-07T06:36:26;6.10;99.90
44190;DHT22;29856;52.144;5.430;2022-12-07T06:38:52;6.10;99.90
44190;DHT22;29856;52.144;5.430;2022-12-07T06:41:18;6.10;99.90
44190;DHT22;29856;52.144;5.430;2022-12-07T06:43:43;6.10;99.90
44190;DHT22;29856;52.144;5.430;2022-12-07T06:46:09;6.10;99.90
44190;DHT22;29856;52.144;5.430;2022-12-07T06:48:34;6.10;99.90
44190;DHT22;29856;52.144;5.430;2022-12-07T06:51:00;6.00;99.90
44190;DHT22;29856;52.144;5.430;2022-12-07T06:53:25;6.00;99.90
44190;DHT22;29856;52.144;5.430;2022-12-07T06:55:51;6.00;99.90
44190;DHT22;29856;52.144;5.430;2022-12-07T06:58:18;5.90;99.90
44190;DHT22;29856;52.144;5.430;2022-12-07T07:00:44;5.90;99.90
44190;DHT22;29856;52.144;5.430;2022-12-07T07:03:09;5.90;99.90
44190;DHT22;29856;52.144;5.430;2022-12-07T07:05:35;5.90;99.90
44190;DHT22;29856;52.144;5.430;2022-12-07T07:08:00;5.80;99.90
44190;DHT22;29856;52.144;5.430;2022-12-07T07:10:26;5.80;99.90
44190;DHT22;29856;52.144;5.430;2022-12-07T07:12:51;5.70;99.90
44190;DHT22;29856;52.144;5.430;2022-12-07T07:15:17;5.60;99.90
44190;DHT22;29856;52.144;5.430;2022-12-07T07:17:42;5.70;99.90
44190;DHT22;29856;52.144;5.430;2022-12-07T07:20:08;5.90;99.90
44190;DHT22;29856;52.144;5.430;2022-12-07T07:22:34;5.90;99.90
44190;DHT22;29856;52.144;5.430;2022-12-07T07:24:59;5.80;99.90
44190;DHT22;29856;52.144;5.430;2022-12-07T07:27:25;5.90;99.90
44190;DHT22;29856;52.144;5.430;2022-12-07T07:29:50;5.80;99.90
44190;DHT22;29856;52.144;5.430;2022-12-07T07:32:16;5.90;99.90
44190;DHT22;29856;52.144;5.430;2022-12-07T07:34:41;5.90;99.90
44190;DHT22;29856;52.144;5.430;2022-12-07T07:37:07;5.80;99.90
44190;DHT22;29856;52.144;5.430;2022-12-07T07:39:32;5.80;99.90
44190;DHT22;29856;52.144;5.430;2022-12-07T07:41:58;5.80;99.90
44190;DHT22;29856;52.144;5.430;2022-12-07T07:44:23;6.00;99.90
44190;DHT22;29856;52.144;5.430;2022-12-07T07:46:48;6.00;99.90
44190;DHT22;29856;52.144;5.430;2022-12-07T07:49:14;6.00;99.90
44190;DHT22;29856;52.144;5.430;2022-12-07T07:51:39;6.00;99.90
44190;DHT22;29856;52.144;5.430;2022-12-07T07:54:05;6.00;99.90
44190;DHT22;29856;52.144;5.430;2022-12-07T07:56:30;6.10;99.90
44190;DHT22;29856;52.144;5.430;2022-12-07T07:58:56;6.10;99.90
44190;DHT22;29856;52.144;5.430;2022-12-07T08:01:21;6.10;99.90
44190;DHT22;29856;52.144;5.430;2022-12-07T08:03:47;6.10;99.90
44190;DHT22;29856;52.144;5.430;2022-12-07T08:06:12;6.00;99.90
44190;DHT22;29856;52.144;5.430;2022-12-07T08:08:38;6.00;99.90
44190;DHT22;29856;52.144;5.430;2022-12-07T08:11:08;6.10;99.90
44190;DHT22;29856;52.144;5.430;2022-12-07T08:13:34;6.20;99.90
44190;DHT22;29856;52.144;5.430;2022-12-07T08:16:07;6.10;99.90
44190;DHT22;29856;52.144;5.430;2022-12-07T08:18:36;6.10;99.90
44190;DHT22;29856;52.144;5.430;2022-12-07T08:21:03;6.00;99.90
44190;DHT22;29856;52.144;5.430;2022-12-07T08:23:28;6.10;99.90
44190;DHT22;29856;52.144;5.430;2022-12-07T08:25:54;6.10;99.90
44190;DHT22;29856;52.144;5.430;2022-12-07T08:28:20;6.00;99.90
44190;DHT22;29856;52.144;5.430;2022-12-07T08:30:45;6.10;99.90
44190;DHT22;29856;52.144;5.430;2022-12-07T08:33:11;6.00;99.90
44190;DHT22;29856;52.144;5.430;2022-12-07T08:35:36;5.90;99.90
44190;DHT22;29856;52.144;5.430;2022-12-07T08:38:02;6.00;99.90
44190;DHT22;29856;52.144;5.430;2022-12-07T08:40:29;6.00;99.90
44190;DHT22;29856;52.144;5.430;2022-12-07T08:42:54;6.00;99.90
44190;DHT22;29856;52.144;5.430;2022-12-07T08:45:21;6.00;99.90
44190;DHT22;29856;52.144;5.430;2022-12-07T08:47:57;6.00;99.90
44190;DHT22;29856;52.144;5.430;2022-12-07T08:50:24;6.10;99.90
44190;DHT22;29856;52.144;5.430;2022-12-07T08:52:54;6.10;99.90
44190;DHT22;29856;52.144;5.430;2022-12-07T08:55:20;6.10;99.90
44190;DHT22;29856;52.144;5.430;2022-12-07T08:57:46;6.10;99.90
44190;DHT22;29856;52.144;5.430;2022-12-07T09:00:12;6.10;99.90
44190;DHT22;29856;52.144;5.430;2022-12-07T09:02:38;6.10;99.90
44190;DHT22;29856;52.144;5.430;2022-12-07T09:05:04;6.10;99.90
44190;DHT22;29856;52.144;5.430;2022-12-07T09:07:31;6.10;99.90
44190;DHT22;29856;52.144;5.430;2022-12-07T09:09:57;6.00;99.90
44190;DHT22;29856;52.144;5.430;2022-12-07T09:12:22;6.00;99.90
44190;DHT22;29856;52.144;5.430;2022-12-07T09:14:48;6.00;99.90
44190;DHT22;29856;52.144;5.430;2022-12-07T09:17:13;5.90;99.90
44190;DHT22;29856;52.144;5.430;2022-12-07T09:19:39;6.00;99.90
44190;DHT22;29856;52.144;5.430;2022-12-07T09:22:05;6.00;99.90
44190;DHT22;29856;52.144;5.430;2022-12-07T09:24:31;6.10;99.90
44190;DHT22;29856;52.144;5.430;2022-12-07T09:26:57;6.20;99.90
44190;DHT22;29856;52.144;5.430;2022-12-07T09:29:22;6.30;99.90
44190;DHT22;29856;52.144;5.430;2022-12-07T09:31:48;6.30;99.90
44190;DHT22;29856;52.144;5.430;2022-12-07T09:34:13;6.30;99.90
44190;DHT22;29856;52.144;5.430;2022-12-07T09:36:39;6.40;99.90
44190;DHT22;29856;52.144;5.430;2022-12-07T09:39:04;6.40;99.90
44190;DHT22;29856;52.144;5.430;2022-12-07T09:41:30;6.30;99.90
44190;DHT22;29856;52.144;5.430;2022-12-07T09:44:21;6.40;99.90
44190;DHT22;29856;52.144;5.430;2022-12-07T09:46:48;6.40;99.90
44190;DHT22;29856;52.144;5.430;2022-12-07T09:49:18;6.40;99.90
44190;DHT22;29856;52.144;5.430;2022-12-07T09:51:45;6.50;99.90
44190;DHT22;29856;52.144;5.430;2022-12-07T09:54:15;6.50;99.90
44190;DHT22;29856;52.144;5.430;2022-12-07T09:56:41;6.50;99.90
44190;DHT22;29856;52.144;5.430;2022-12-07T09:59:13;6.50;99.90
44190;DHT22;29856;52.144;5.430;2022-12-07T10:01:41;6.60;99.90
44190;DHT22;29856;52.144;5.430;2022-12-07T10:04:24;6.60;99.90
44190;DHT22;29856;52.144;5.430;2022-12-07T10:06:50;6.60;99.90
44190;DHT22;29856;52.144;5.430;2022-12-07T10:09:18;6.70;99.90
44190;DHT22;29856;52.144;5.430;2022-12-07T10:12:00;6.70;99.90
44190;DHT22;29856;52.144;5.430;2022-12-07T10:14:28;6.70;99.90
44190;DHT22;29856;52.144;5.430;2022-12-07T10:16:54;6.70;99.90
44190;DHT22;29856;52.144;5.430;2022-12-07T10:19:31;6.70;99.90
44190;DHT22;29856;52.144;5.430;2022-12-07T10:22:12;6.80;99.90
44190;DHT22;29856;52.144;5.430;2022-12-07T10:24:47;7.00;99.90
44190;DHT22;29856;52.144;5.430;2022-12-07T10:27:30;7.00;99.90
44190;DHT22;29856;52.144;5.430;2022-12-07T10:29:57;7.00;99.90
44190;DHT22;29856;52.144;5.430;2022-12-07T10:32:33;7.00;99.90
44190;DHT22;29856;52.144;5.430;2022-12-07T10:35:21;7.00;99.90
44190;DHT22;29856;52.144;5.430;2022-12-07T10:37:47;7.00;99.90
44190;DHT22;29856;52.144;5.430;2022-12-07T10:40:36;7.00;99.90
44190;DHT22;29856;52.144;5.430;2022-12-07T10:43:18;7.00;99.90
44190;DHT22;29856;52.144;5.430;2022-12-07T10:46:26;7.10;99.90
44190;DHT22;29856;52.144;5.430;2022-12-07T10:52:07;7.20;99.90
44190;DHT22;29856;52.144;5.430;2022-12-07T11:00:22;7.30;99.90
44190;DHT22;29856;52.144;5.430;2022-12-07T11:05:59;7.40;99.90
44190;DHT22;29856;52.144;5.430;2022-12-07T11:09:00;7.40;99.90
44190;DHT22;29856;52.144;5.430;2022-12-07T11:19:45;7.70;99.90
44190;DHT22;29856;52.144;5.430;2022-12-07T11:22:23;7.60;99.90
44190;DHT22;29856;52.144;5.430;2022-12-07T11:27:41;7.60;99.90
44190;DHT22;29856;52.144;5.430;2022-12-07T11:38:12;7.50;99.90
44190;DHT22;29856;52.144;5.430;2022-12-07T11:40:40;7.50;99.90
44190;DHT22;29856;52.144;5.430;2022-12-07T11:45:42;7.60;99.90
44190;DHT22;29856;52.144;5.430;2022-12-07T11:48:18;7.70;99.90
44190;DHT22;29856;52.144;5.430;2022-12-07T11:53:28;7.70;99.90
44190;DHT22;29856;52.144;5.430;2022-12-07T11:56:10;7.70;99.90
44190;DHT22;29856;52.144;5.430;2022-12-07T12:06:38;7.80;99.90
44190;DHT22;29856;52.144;5.430;2022-12-07T12:20:19;7.90;99.90
44190;DHT22;29856;52.144;5.430;2022-12-07T12:22:56;8.00;99.90
44190;DHT22;29856;52.144;5.430;2022-12-07T12:25:47;8.00;99.90
44190;DHT22;29856;52.144;5.430;2022-12-07T12:28:31;8.00;99.90
44190;DHT22;29856;52.144;5.430;2022-12-07T12:31:14;8.00;99.90
44190;DHT22;29856;52.144;5.430;2022-12-07T12:33:54;8.00;99.90
44190;DHT22;29856;52.144;5.430;2022-12-07T12:39:07;8.20;99.90
44190;DHT22;29856;52.144;5.430;2022-12-07T12:46:49;8.40;99.90
44190;DHT22;29856;52.144;5.430;2022-12-07T12:59:38;8.60;99.90
44190;DHT22;29856;52.144;5.430;2022-12-07T13:15:51;8.00;99.90
44190;DHT22;29856;52.144;5.430;2022-12-07T13:28:49;8.00;99.90
44190;DHT22;29856;52.144;5.430;2022-12-07T13:31:33;8.00;99.90
44190;DHT22;29856;52.144;5.430;2022-12-07T13:34:04;8.00;99.90
44190;DHT22;29856;52.144;5.430;2022-12-07T13:36:37;8.00;99.90
44190;DHT22;29856;52.144;5.430;2022-12-07T13:39:19;8.10;99.90
44190;DHT22;29856;52.144;5.430;2022-12-07T13:41:50;8.20;99.90
44190;DHT22;29856;52.144;5.430;2022-12-07T13:44:18;8.40;99.90
44190;DHT22;29856;52.144;5.430;2022-12-07T13:49:36;8.30;99.90
44190;DHT22;29856;52.144;5.430;2022-12-07T13:52:23;8.20;99.90
44190;DHT22;29856;52.144;5.430;2022-12-07T13:55:15;8.20;99.90
44190;DHT22;29856;52.144;5.430;2022-12-07T13:57:42;8.20;99.90
44190;DHT22;29856;52.144;5.430;2022-12-07T14:00:21;8.20;99.90
44190;DHT22;29856;52.144;5.430;2022-12-07T14:03:01;8.30;99.90
44190;DHT22;29856;52.144;5.430;2022-12-07T14:05:32;8.20;99.90
44190;DHT22;29856;52.144;5.430;2022-12-07T14:08:20;8.10;99.90
44190;DHT22;29856;52.144;5.430;2022-12-07T14:16:30;8.10;99.90
44190;DHT22;29856;52.144;5.430;2022-12-07T14:18:58;8.00;99.90
44190;DHT22;29856;52.144;5.430;2022-12-07T14:21:29;8.00;99.90
44190;DHT22;29856;52.144;5.430;2022-12-07T14:24:22;8.10;99.90
44190;DHT22;29856;52.144;5.430;2022-12-07T14:26:49;8.10;99.90
44190;DHT22;29856;52.144;5.430;2022-12-07T14:29:29;8.20;99.90
44190;DHT22;29856;52.144;5.430;2022-12-07T14:31:57;8.30;99.90
44190;DHT22;29856;52.144;5.430;2022-12-07T14:34:23;8.20;99.90
44190;DHT22;29856;52.144;5.430;2022-12-07T14:36:49;8.20;99.90
44190;DHT22;29856;52.144;5.430;2022-12-07T14:39:15;8.30;99.90
44190;DHT22;29856;52.144;5.430;2022-12-07T14:41:41;8.30;99.90
44190;DHT22;29856;52.144;5.430;2022-12-07T14:44:12;8.30;99.90
44190;DHT22;29856;52.144;5.430;2022-12-07T14:46:38;8.40;99.90
44190;DHT22;29856;52.144;5.430;2022-12-07T14:49:03;8.30;99.90
44190;DHT22;29856;52.144;5.430;2022-12-07T14:51:29;8.30;99.90
44190;DHT22;29856;52.144;5.430;2022-12-07T14:53:55;8.30;99.90
44190;DHT22;29856;52.144;5.430;2022-12-07T14:56:20;8.20;99.90
44190;DHT22;29856;52.144;5.430;2022-12-07T14:58:46;8.10;99.90
44190;DHT22;29856;52.144;5.430;2022-12-07T15:01:11;8.00;99.90
44190;DHT22;29856;52.144;5.430;2022-12-07T15:03:37;8.00;99.90
44190;DHT22;29856;52.144;5.430;2022-12-07T15:06:04;7.90;99.90
44190;DHT22;29856;52.144;5.430;2022-12-07T15:08:33;7.90;99.90
44190;DHT22;29856;52.144;5.430;2022-12-07T15:10:59;7.90;99.90
44190;DHT22;29856;52.144;5.430;2022-12-07T15:13:24;7.80;99.90
44190;DHT22;29856;52.144;5.430;2022-12-07T15:15:52;7.70;99.90
44190;DHT22;29856;52.144;5.430;2022-12-07T15:18:19;7.70;99.90
44190;DHT22;29856;52.144;5.430;2022-12-07T15:20:45;7.30;99.90
44190;DHT22;29856;52.144;5.430;2022-12-07T15:23:11;7.10;99.90
44190;DHT22;29856;52.144;5.430;2022-12-07T15:25:41;7.20;99.90
44190;DHT22;29856;52.144;5.430;2022-12-07T15:28:06;7.30;99.90
44190;DHT22;29856;52.144;5.430;2022-12-07T15:30:32;7.30;99.90
44190;DHT22;29856;52.144;5.430;2022-12-07T15:32:57;7.30;99.90
44190;DHT22;29856;52.144;5.430;2022-12-07T15:35:23;7.20;99.90
44190;DHT22;29856;52.144;5.430;2022-12-07T15:37:48;7.20;99.90
44190;DHT22;29856;52.144;5.430;2022-12-07T15:40:14;7.30;99.90
44190;DHT22;29856;52.144;5.430;2022-12-07T15:42:40;7.50;99.90
44190;DHT22;29856;52.144;5.430;2022-12-07T15:45:07;7.60;99.90
44190;DHT22;29856;52.144;5.430;2022-12-07T15:47:40;7.50;99.90
44190;DHT22;29856;52.144;5.430;2022-12-07T15:50:08;7.60;99.90
44190;DHT22;29856;52.144;5.430;2022-12-07T15:52:34;7.60;99.90
44190;DHT22;29856;52.144;5.430;2022-12-07T15:55:00;7.70;99.90
44190;DHT22;29856;52.144;5.430;2022-12-07T15:57:26;7.80;99.90
44190;DHT22;29856;52.144;5.430;2022-12-07T15:59:52;7.80;99.90
44190;DHT22;29856;52.144;5.430;2022-12-07T16:02:18;7.70;99.90
44190;DHT22;29856;52.144;5.430;2022-12-07T16:04:43;7.70;99.90
44190;DHT22;29856;52.144;5.430;2022-12-07T16:07:09;7.80;99.90
44190;DHT22;29856;52.144;5.430;2022-12-07T16:09:34;7.70;99.90
44190;DHT22;29856;52.144;5.430;2022-12-07T16:12:00;7.70;99.90
44190;DHT22;29856;52.144;5.430;2022-12-07T16:14:25;7.70;99.90
44190;DHT22;29856;52.144;5.430;2022-12-07T16:16:51;7.60;99.90
44190;DHT22;29856;52.144;5.430;2022-12-07T16:19:16;7.60;99.90
44190;DHT22;29856;52.144;5.430;2022-12-07T16:21:41;7.50;99.90
44190;DHT22;29856;52.144;5.430;2022-12-07T16:24:07;7.50;99.90
44190;DHT22;29856;52.144;5.430;2022-12-07T16:26:33;7.60;99.90
44190;DHT22;29856;52.144;5.430;2022-12-07T16:28:59;7.60;99.90
44190;DHT22;29856;52.144;5.430;2022-12-07T16:31:26;7.70;99.90
44190;DHT22;29856;52.144;5.430;2022-12-07T16:33:54;7.50;99.90
44190;DHT22;29856;52.144;5.430;2022-12-07T16:36:19;7.50;99.90
44190;DHT22;29856;52.144;5.430;2022-12-07T16:38:45;7.40;99.90
44190;DHT22;29856;52.144;5.430;2022-12-07T16:41:11;7.40;99.90
44190;DHT22;29856;52.144;5.430;2022-12-07T16:43:36;7.40;99.90
44190;DHT22;29856;52.144;5.430;2022-12-07T16:46:03;7.40;99.90
44190;DHT22;29856;52.144;5.430;2022-12-07T16:48:29;7.30;99.90
44190;DHT22;29856;52.144;5.430;2022-12-07T16:50:54;7.40;99.90
44190;DHT22;29856;52.144;5.430;2022-12-07T16:53:22;7.60;99.90
44190;DHT22;29856;52.144;5.430;2022-12-07T16:55:48;7.70;99.90
44190;DHT22;29856;52.144;5.430;2022-12-07T16:58:15;7.90;99.90
44190;DHT22;29856;52.144;5.430;2022-12-07T17:00:42;7.90;99.90
44190;DHT22;29856;52.144;5.430;2022-12-07T17:03:08;7.90;99.90
44190;DHT22;29856;52.144;5.430;2022-12-07T17:05:41;8.00;99.90
44190;DHT22;29856;52.144;5.430;2022-12-07T17:08:07;7.90;99.90
44190;DHT22;29856;52.144;5.430;2022-12-07T17:10:35;7.90;99.90
44190;DHT22;29856;52.144;5.430;2022-12-07T17:13:02;7.80;99.90
44190;DHT22;29856;52.144;5.430;2022-12-07T17:15:28;7.70;99.90
44190;DHT22;29856;52.144;5.430;2022-12-07T17:17:57;7.70;99.90
44190;DHT22;29856;52.144;5.430;2022-12-07T17:20:26;7.70;99.90
44190;DHT22;29856;52.144;5.430;2022-12-07T17:22:52;7.70;99.90
44190;DHT22;29856;52.144;5.430;2022-12-07T17:25:18;7.90;99.90
44190;DHT22;29856;52.144;5.430;2022-12-07T17:27:45;7.80;99.90
44190;DHT22;29856;52.144;5.430;2022-12-07T17:30:12;7.70;99.90
44190;DHT22;29856;52.144;5.430;2022-12-07T17:32:38;7.50;99.90
44190;DHT22;29856;52.144;5.430;2022-12-07T17:35:04;7.40;99.90
44190;DHT22;29856;52.144;5.430;2022-12-07T17:37:31;7.30;99.90
44190;DHT22;29856;52.144;5.430;2022-12-07T17:39:57;7.20;99.90
44190;DHT22;29856;52.144;5.430;2022-12-07T17:42:25;7.10;99.90
44190;DHT22;29856;52.144;5.430;2022-12-07T17:44:50;7.00;99.90
44190;DHT22;29856;52.144;5.430;2022-12-07T17:47:16;7.00;99.90
44190;DHT22;29856;52.144;5.430;2022-12-07T17:49:41;6.80;99.90
44190;DHT22;29856;52.144;5.430;2022-12-07T17:52:07;6.70;99.90
44190;DHT22;29856;52.144;5.430;2022-12-07T17:54:33;6.40;99.90
44190;DHT22;29856;52.144;5.430;2022-12-07T17:56:58;6.20;99.90
44190;DHT22;29856;52.144;5.430;2022-12-07T17:59:24;6.20;99.90
44190;DHT22;29856;52.144;5.430;2022-12-07T18:01:50;6.00;99.90
44190;DHT22;29856;52.144;5.430;2022-12-07T18:04:15;6.10;99.90
44190;DHT22;29856;52.144;5.430;2022-12-07T18:06:42;6.10;99.90